sensor_id;sensor_type;location;lat;lon;timestamp;P1;durP1;ratioP1;P2;durP2;ratioP2
27706;SDS011;36332;51.384;0.040;2024-02-14T00:01:13;54.63;;;8.82;;
27706;SDS011;36332;51.384;0.040;2024-02-14T00:03:42;56.22;;;7.25;;
27706;SDS011;36332;51.384;0.040;2024-02-14T00:06:10;61.17;;;8.43;;
27706;SDS011;36332;51.384;0.040;2024-02-14T00:08:41;56.13;;;8.57;;
27706;SDS011;36332;51.384;0.040;2024-02-14T00:11:09;79.18;;;9.70;;
27706;SDS011;36332;51.384;0.040;2024-02-14T00:13:38;59.92;;;7.10;;
27706;SDS011;36332;51.384;0.040;2024-02-14T00:16:07;50.70;;;10.43;;
27706;SDS011;36332;51.384;0.040;2024-02-14T00:18:36;50.67;;;7.82;;
27706;SDS011;36332;51.384;0.040;2024-02-14T00:21:05;38.22;;;7.05;;
27706;SDS011;36332;51.384;0.040;2024-02-14T00:23:33;54.58;;;8.05;;
27706;SDS011;36332;51.384;0.040;2024-02-14T00:26:01;58.75;;;9.73;;
27706;SDS011;36332;51.384;0.040;2024-02-14T00:28:30;44.60;;;5.90;;
27706;SDS011;36332;51.384;0.040;2024-02-14T00:30:58;44.67;;;8.65;;
27706;SDS011;36332;51.384;0.040;2024-02-14T00:33:46;36.22;;;6.07;;
27706;SDS011;36332;51.384;0.040;2024-02-14T00:36:14;36.28;;;7.10;;
27706;SDS011;36332;51.384;0.040;2024-02-14T00:38:43;31.10;;;5.00;;
27706;SDS011;36332;51.384;0.040;2024-02-14T00:41:12;44.22;;;7.03;;
27706;SDS011;36332;51.384;0.040;2024-02-14T00:43:41;33.63;;;6.15;;
27706;SDS011;36332;51.384;0.040;2024-02-14T00:46:15;28.08;;;6.05;;
27706;SDS011;36332;51.384;0.040;2024-02-14T00:48:45;24.60;;;6.30;;
27706;SDS011;36332;51.384;0.040;2024-02-14T00:51:14;29.33;;;5.47;;
27706;SDS011;36332;51.384;0.040;2024-02-14T00:53:43;37.30;;;7.68;;
27706;SDS011;36332;51.384;0.040;2024-02-14T00:56:12;44.47;;;7.32;;
27706;SDS011;36332;51.384;0.040;2024-02-14T00:58:40;32.10;;;7.05;;
27706;SDS011;36332;51.384;0.040;2024-02-14T01:01:17;30.88;;;6.20;;
27706;SDS011;36332;51.384;0.040;2024-02-14T01:03:46;31.40;;;4.50;;
27706;SDS011;36332;51.384;0.040;2024-02-14T01:06:15;24.13;;;4.95;;
27706;SDS011;36332;51.384;0.040;2024-02-14T01:08:43;24.38;;;4.30;;
27706;SDS011;36332;51.384;0.040;2024-02-14T01:11:13;20.40;;;4.72;;
27706;SDS011;36332;51.384;0.040;2024-02-14T01:13:42;14.63;;;3.40;;
27706;SDS011;36332;51.384;0.040;2024-02-14T01:16:09;24.90;;;4.28;;
27706;SDS011;36332;51.384;0.040;2024-02-14T01:18:37;21.00;;;3.50;;
27706;SDS011;36332;51.384;0.040;2024-02-14T01:21:07;24.73;;;4.40;;
27706;SDS011;36332;51.384;0.040;2024-02-14T01:23:35;19.60;;;3.03;;
27706;SDS011;36332;51.384;0.040;2024-02-14T01:26:03;17.73;;;3.58;;
27706;SDS011;36332;51.384;0.040;2024-02-14T01:28:32;15.02;;;3.17;;
27706;SDS011;36332;51.384;0.040;2024-02-14T01:31:00;18.40;;;3.45;;
27706;SDS011;36332;51.384;0.040;2024-02-14T01:33:32;25.35;;;3.67;;
27706;SDS011;36332;51.384;0.040;2024-02-14T01:36:00;24.10;;;3.60;;
27706;SDS011;36332;51.384;0.040;2024-02-14T01:38:31;26.10;;;3.88;;
27706;SDS011;36332;51.384;0.040;2024-02-14T01:41:03;20.35;;;4.85;;
27706;SDS011;36332;51.384;0.040;2024-02-14T01:43:31;23.73;;;3.25;;
27706;SDS011;36332;51.384;0.040;2024-02-14T01:46:06;28.60;;;4.38;;
27706;SDS011;36332;51.384;0.040;2024-02-14T01:48:46;26.10;;;3.70;;
27706;SDS011;36332;51.384;0.040;2024-02-14T01:51:14;24.73;;;4.00;;
27706;SDS011;36332;51.384;0.040;2024-02-14T01:53:46;29.77;;;4.68;;
27706;SDS011;36332;51.384;0.040;2024-02-14T01:56:15;15.60;;;3.42;;
27706;SDS011;36332;51.384;0.040;2024-02-14T01:58:44;29.63;;;3.97;;
27706;SDS011;36332;51.384;0.040;2024-02-14T02:01:13;20.52;;;4.50;;
27706;SDS011;36332;51.384;0.040;2024-02-14T02:03:45;27.77;;;4.75;;
27706;SDS011;36332;51.384;0.040;2024-02-14T02:06:15;31.23;;;5.40;;
27706;SDS011;36332;51.384;0.040;2024-02-14T02:08:45;23.60;;;3.60;;
27706;SDS011;36332;51.384;0.040;2024-02-14T02:11:13;23.67;;;4.90;;
27706;SDS011;36332;51.384;0.040;2024-02-14T02:14:03;32.72;;;4.20;;
27706;SDS011;36332;51.384;0.040;2024-02-14T02:16:51;19.38;;;4.05;;
27706;SDS011;36332;51.384;0.040;2024-02-14T02:19:42;18.77;;;3.50;;
27706;SDS011;36332;51.384;0.040;2024-02-14T02:22:31;28.27;;;3.53;;
27706;SDS011;36332;51.384;0.040;2024-02-14T02:25:22;17.88;;;3.53;;
27706;SDS011;36332;51.384;0.040;2024-02-14T02:28:13;21.33;;;3.85;;
27706;SDS011;36332;51.384;0.040;2024-02-14T02:30:45;23.95;;;3.72;;
27706;SDS011;36332;51.384;0.040;2024-02-14T02:36:21;25.45;;;3.67;;
27706;SDS011;36332;51.384;0.040;2024-02-14T02:39:14;17.85;;;3.47;;
27706;SDS011;36332;51.384;0.040;2024-02-14T02:42:03;17.50;;;3.97;;
27706;SDS011;36332;51.384;0.040;2024-02-14T02:44:55;18.08;;;2.92;;
27706;SDS011;36332;51.384;0.040;2024-02-14T02:47:47;22.52;;;3.10;;
27706;SDS011;36332;51.384;0.040;2024-02-14T02:50:40;13.85;;;2.35;;
27706;SDS011;36332;51.384;0.040;2024-02-14T02:53:32;16.48;;;2.58;;
27706;SDS011;36332;51.384;0.040;2024-02-14T02:56:24;13.80;;;2.70;;
27706;SDS011;36332;51.384;0.040;2024-02-14T02:58:55;14.13;;;2.08;;
27706;SDS011;36332;51.384;0.040;2024-02-14T03:01:27;11.77;;;2.53;;
27706;SDS011;36332;51.384;0.040;2024-02-14T03:04:20;9.90;;;1.90;;
27706;SDS011;36332;51.384;0.040;2024-02-14T03:07:15;13.60;;;2.03;;
27706;SDS011;36332;51.384;0.040;2024-02-14T03:10:05;8.32;;;1.73;;
27706;SDS011;36332;51.384;0.040;2024-02-14T03:12:56;11.18;;;2.25;;
27706;SDS011;36332;51.384;0.040;2024-02-14T03:15:45;5.82;;;1.60;;
27706;SDS011;36332;51.384;0.040;2024-02-14T03:21:14;6.60;;;2.00;;
27706;SDS011;36332;51.384;0.040;2024-02-14T03:23:46;8.98;;;2.00;;
27706;SDS011;36332;51.384;0.040;2024-02-14T03:26:16;8.05;;;2.17;;
27706;SDS011;36332;51.384;0.040;2024-02-14T03:28:54;5.47;;;1.83;;
27706;SDS011;36332;51.384;0.040;2024-02-14T03:35:48;10.52;;;1.50;;
27706;SDS011;36332;51.384;0.040;2024-02-14T03:38:26;5.05;;;1.77;;
27706;SDS011;36332;51.384;0.040;2024-02-14T03:40:56;10.77;;;2.55;;
27706;SDS011;36332;51.384;0.040;2024-02-14T03:43:30;4.78;;;1.70;;
27706;SDS011;36332;51.384;0.040;2024-02-14T03:46:02;7.55;;;2.00;;
27706;SDS011;36332;51.384;0.040;2024-02-14T03:48:33;12.10;;;1.70;;
27706;SDS011;36332;51.384;0.040;2024-02-14T03:51:04;4.18;;;1.42;;
27706;SDS011;36332;51.384;0.040;2024-02-14T03:53:33;10.52;;;1.70;;
27706;SDS011;36332;51.384;0.040;2024-02-14T03:56:04;8.30;;;1.70;;
27706;SDS011;36332;51.384;0.040;2024-02-14T03:58:38;5.85;;;1.63;;
27706;SDS011;36332;51.384;0.040;2024-02-14T04:01:09;8.15;;;2.63;;
27706;SDS011;36332;51.384;0.040;2024-02-14T04:03:42;8.82;;;1.85;;
27706;SDS011;36332;51.384;0.040;2024-02-14T04:06:12;6.90;;;1.10;;
27706;SDS011;36332;51.384;0.040;2024-02-14T04:08:42;8.93;;;1.77;;
27706;SDS011;36332;51.384;0.040;2024-02-14T04:11:20;13.50;;;2.80;;
27706;SDS011;36332;51.384;0.040;2024-02-14T04:13:55;13.10;;;1.90;;
27706;SDS011;36332;51.384;0.040;2024-02-14T04:16:24;10.85;;;2.00;;
27706;SDS011;36332;51.384;0.040;2024-02-14T04:18:57;7.97;;;1.73;;
27706;SDS011;36332;51.384;0.040;2024-02-14T04:21:33;9.68;;;2.47;;
27706;SDS011;36332;51.384;0.040;2024-02-14T04:24:04;14.50;;;3.55;;
27706;SDS011;36332;51.384;0.040;2024-02-14T04:26:34;8.15;;;2.38;;
27706;SDS011;36332;51.384;0.040;2024-02-14T04:29:05;5.93;;;1.85;;
27706;SDS011;36332;51.384;0.040;2024-02-14T04:31:38;8.68;;;1.52;;
27706;SDS011;36332;51.384;0.040;2024-02-14T04:34:09;8.85;;;1.55;;
27706;SDS011;36332;51.384;0.040;2024-02-14T04:36:39;6.10;;;1.63;;
27706;SDS011;36332;51.384;0.040;2024-02-14T04:39:09;7.75;;;2.03;;
27706;SDS011;36332;51.384;0.040;2024-02-14T04:41:43;3.53;;;1.48;;
27706;SDS011;36332;51.384;0.040;2024-02-14T04:44:28;6.47;;;1.55;;
27706;SDS011;36332;51.384;0.040;2024-02-14T04:46:59;7.72;;;1.33;;
27706;SDS011;36332;51.384;0.040;2024-02-14T04:49:34;5.65;;;1.48;;
27706;SDS011;36332;51.384;0.040;2024-02-14T04:52:15;4.10;;;1.48;;
27706;SDS011;36332;51.384;0.040;2024-02-14T04:54:46;4.05;;;1.25;;
27706;SDS011;36332;51.384;0.040;2024-02-14T04:57:22;7.88;;;1.55;;
27706;SDS011;36332;51.384;0.040;2024-02-14T04:59:57;4.05;;;1.42;;
27706;SDS011;36332;51.384;0.040;2024-02-14T05:02:34;2.78;;;1.13;;
27706;SDS011;36332;51.384;0.040;2024-02-14T05:05:06;5.32;;;1.75;;
27706;SDS011;36332;51.384;0.040;2024-02-14T05:07:55;2.40;;;1.10;;
27706;SDS011;36332;51.384;0.040;2024-02-14T05:10:27;4.57;;;1.40;;
27706;SDS011;36332;51.384;0.040;2024-02-14T05:16:05;5.03;;;1.30;;
27706;SDS011;36332;51.384;0.040;2024-02-14T05:18:53;5.00;;;1.10;;
27706;SDS011;36332;51.384;0.040;2024-02-14T05:21:23;4.25;;;1.23;;
27706;SDS011;36332;51.384;0.040;2024-02-14T05:23:51;7.45;;;1.10;;
27706;SDS011;36332;51.384;0.040;2024-02-14T05:26:20;4.90;;;1.17;;
27706;SDS011;36332;51.384;0.040;2024-02-14T05:28:49;1.05;;;0.80;;
27706;SDS011;36332;51.384;0.040;2024-02-14T05:31:17;4.43;;;1.05;;
27706;SDS011;36332;51.384;0.040;2024-02-14T05:33:47;4.65;;;1.15;;
27706;SDS011;36332;51.384;0.040;2024-02-14T05:36:15;3.03;;;0.95;;
27706;SDS011;36332;51.384;0.040;2024-02-14T05:38:44;2.90;;;1.27;;
27706;SDS011;36332;51.384;0.040;2024-02-14T05:41:14;2.58;;;1.45;;
27706;SDS011;36332;51.384;0.040;2024-02-14T05:43:46;3.20;;;1.08;;
27706;SDS011;36332;51.384;0.040;2024-02-14T05:49:10;6.82;;;1.35;;
27706;SDS011;36332;51.384;0.040;2024-02-14T05:51:40;6.35;;;1.67;;
27706;SDS011;36332;51.384;0.040;2024-02-14T05:54:16;8.43;;;1.88;;
27706;SDS011;36332;51.384;0.040;2024-02-14T05:56:45;6.53;;;1.30;;
27706;SDS011;36332;51.384;0.040;2024-02-14T05:59:14;7.03;;;2.00;;
27706;SDS011;36332;51.384;0.040;2024-02-14T06:01:42;5.47;;;2.30;;
27706;SDS011;36332;51.384;0.040;2024-02-14T06:04:14;11.70;;;2.50;;
27706;SDS011;36332;51.384;0.040;2024-02-14T06:06:44;5.43;;;2.28;;
27706;SDS011;36332;51.384;0.040;2024-02-14T06:09:14;10.15;;;2.58;;
27706;SDS011;36332;51.384;0.040;2024-02-14T06:11:42;8.25;;;2.50;;
27706;SDS011;36332;51.384;0.040;2024-02-14T06:14:11;8.30;;;1.98;;
27706;SDS011;36332;51.384;0.040;2024-02-14T06:16:42;6.22;;;1.90;;
27706;SDS011;36332;51.384;0.040;2024-02-14T06:19:11;8.65;;;2.20;;
27706;SDS011;36332;51.384;0.040;2024-02-14T06:21:40;12.00;;;1.90;;
27706;SDS011;36332;51.384;0.040;2024-02-14T06:24:07;8.38;;;2.03;;
27706;SDS011;36332;51.384;0.040;2024-02-14T06:26:40;5.30;;;2.05;;
27706;SDS011;36332;51.384;0.040;2024-02-14T06:29:08;5.82;;;2.40;;
27706;SDS011;36332;51.384;0.040;2024-02-14T06:31:35;5.15;;;1.98;;
27706;SDS011;36332;51.384;0.040;2024-02-14T06:34:06;5.53;;;1.90;;
27706;SDS011;36332;51.384;0.040;2024-02-14T06:36:35;3.75;;;1.42;;
27706;SDS011;36332;51.384;0.040;2024-02-14T06:39:06;4.28;;;1.58;;
27706;SDS011;36332;51.384;0.040;2024-02-14T06:41:35;5.82;;;1.20;;
27706;SDS011;36332;51.384;0.040;2024-02-14T06:44:06;3.78;;;1.10;;
27706;SDS011;36332;51.384;0.040;2024-02-14T06:46:34;1.52;;;1.25;;
27706;SDS011;36332;51.384;0.040;2024-02-14T06:49:06;2.05;;;0.90;;
27706;SDS011;36332;51.384;0.040;2024-02-14T06:51:37;5.20;;;1.52;;
27706;SDS011;36332;51.384;0.040;2024-02-14T06:54:09;1.80;;;1.00;;
27706;SDS011;36332;51.384;0.040;2024-02-14T06:56:39;5.25;;;1.13;;
27706;SDS011;36332;51.384;0.040;2024-02-14T06:59:08;5.25;;;1.55;;
27706;SDS011;36332;51.384;0.040;2024-02-14T07:01:37;3.25;;;1.02;;
27706;SDS011;36332;51.384;0.040;2024-02-14T07:04:05;1.77;;;0.98;;
27706;SDS011;36332;51.384;0.040;2024-02-14T07:06:34;6.25;;;1.60;;
27706;SDS011;36332;51.384;0.040;2024-02-14T07:09:02;1.05;;;1.05;;
27706;SDS011;36332;51.384;0.040;2024-02-14T07:11:31;5.57;;;1.58;;
27706;SDS011;36332;51.384;0.040;2024-02-14T07:14:04;2.78;;;1.00;;
27706;SDS011;36332;51.384;0.040;2024-02-14T07:16:32;1.95;;;1.10;;
27706;SDS011;36332;51.384;0.040;2024-02-14T07:19:01;2.70;;;0.93;;
27706;SDS011;36332;51.384;0.040;2024-02-14T07:21:30;1.60;;;0.82;;
27706;SDS011;36332;51.384;0.040;2024-02-14T07:24:00;0.93;;;0.90;;
27706;SDS011;36332;51.384;0.040;2024-02-14T07:26:29;2.17;;;0.90;;
27706;SDS011;36332;51.384;0.040;2024-02-14T07:28:59;1.23;;;0.60;;
27706;SDS011;36332;51.384;0.040;2024-02-14T07:31:36;3.03;;;1.02;;
27706;SDS011;36332;51.384;0.040;2024-02-14T07:34:06;5.00;;;0.95;;
27706;SDS011;36332;51.384;0.040;2024-02-14T07:36:37;1.30;;;1.20;;
27706;SDS011;36332;51.384;0.040;2024-02-14T07:39:10;0.82;;;0.60;;
27706;SDS011;36332;51.384;0.040;2024-02-14T07:41:44;2.95;;;0.90;;
27706;SDS011;36332;51.384;0.040;2024-02-14T07:47:14;1.45;;;0.80;;
27706;SDS011;36332;51.384;0.040;2024-02-14T07:49:48;1.48;;;0.80;;
27706;SDS011;36332;51.384;0.040;2024-02-14T07:52:21;2.35;;;0.90;;
27706;SDS011;36332;51.384;0.040;2024-02-14T07:54:55;4.03;;;1.00;;
27706;SDS011;36332;51.384;0.040;2024-02-14T07:57:34;3.75;;;1.00;;
27706;SDS011;36332;51.384;0.040;2024-02-14T08:00:08;2.72;;;1.15;;
27706;SDS011;36332;51.384;0.040;2024-02-14T08:02:38;3.30;;;0.95;;
27706;SDS011;36332;51.384;0.040;2024-02-14T08:05:07;1.40;;;0.90;;
27706;SDS011;36332;51.384;0.040;2024-02-14T08:07:37;2.92;;;1.00;;
27706;SDS011;36332;51.384;0.040;2024-02-14T08:10:08;2.22;;;1.00;;
27706;SDS011;36332;51.384;0.040;2024-02-14T08:12:52;1.98;;;0.80;;
27706;SDS011;36332;51.384;0.040;2024-02-14T08:15:20;4.53;;;0.90;;
27706;SDS011;36332;51.384;0.040;2024-02-14T08:17:56;3.67;;;1.10;;
27706;SDS011;36332;51.384;0.040;2024-02-14T08:20:36;4.00;;;0.90;;
27706;SDS011;36332;51.384;0.040;2024-02-14T08:23:13;4.40;;;1.65;;
27706;SDS011;36332;51.384;0.040;2024-02-14T08:25:46;2.80;;;0.93;;
27706;SDS011;36332;51.384;0.040;2024-02-14T08:31:19;1.20;;;1.10;;
27706;SDS011;36332;51.384;0.040;2024-02-14T08:33:54;5.38;;;1.33;;
27706;SDS011;36332;51.384;0.040;2024-02-14T08:36:23;2.83;;;1.10;;
27706;SDS011;36332;51.384;0.040;2024-02-14T08:38:55;5.40;;;2.28;;
27706;SDS011;36332;51.384;0.040;2024-02-14T08:41:25;2.05;;;1.02;;
27706;SDS011;36332;51.384;0.040;2024-02-14T08:43:55;5.32;;;1.40;;
27706;SDS011;36332;51.384;0.040;2024-02-14T08:46:27;3.28;;;1.00;;
27706;SDS011;36332;51.384;0.040;2024-02-14T08:49:00;2.97;;;1.35;;
27706;SDS011;36332;51.384;0.040;2024-02-14T08:51:31;4.78;;;1.27;;
27706;SDS011;36332;51.384;0.040;2024-02-14T08:54:00;7.18;;;1.08;;
27706;SDS011;36332;51.384;0.040;2024-02-14T08:56:33;5.00;;;2.17;;
27706;SDS011;36332;51.384;0.040;2024-02-14T08:59:06;5.53;;;1.33;;
27706;SDS011;36332;51.384;0.040;2024-02-14T09:01:35;1.15;;;0.63;;
27706;SDS011;36332;51.384;0.040;2024-02-14T09:04:08;1.00;;;0.60;;
27706;SDS011;36332;51.384;0.040;2024-02-14T09:06:42;1.65;;;0.77;;
27706;SDS011;36332;51.384;0.040;2024-02-14T09:09:10;1.13;;;0.50;;
27706;SDS011;36332;51.384;0.040;2024-02-14T09:12:30;3.15;;;0.70;;
27706;SDS011;36332;51.384;0.040;2024-02-14T09:14:59;1.45;;;0.50;;
27706;SDS011;36332;51.384;0.040;2024-02-14T09:17:28;0.75;;;0.70;;
27706;SDS011;36332;51.384;0.040;2024-02-14T09:19:56;0.70;;;0.70;;
27706;SDS011;36332;51.384;0.040;2024-02-14T09:22:24;2.80;;;0.90;;
27706;SDS011;36332;51.384;0.040;2024-02-14T09:24:52;2.20;;;0.77;;
27706;SDS011;36332;51.384;0.040;2024-02-14T09:27:20;1.65;;;0.85;;
27706;SDS011;36332;51.384;0.040;2024-02-14T09:29:48;1.23;;;0.60;;
27706;SDS011;36332;51.384;0.040;2024-02-14T09:32:16;2.15;;;0.70;;
27706;SDS011;36332;51.384;0.040;2024-02-14T09:34:44;0.47;;;0.47;;
27706;SDS011;36332;51.384;0.040;2024-02-14T09:37:13;4.32;;;0.70;;
27706;SDS011;36332;51.384;0.040;2024-02-14T09:39:40;2.42;;;0.50;;
27706;SDS011;36332;51.384;0.040;2024-02-14T09:42:13;0.50;;;0.50;;
27706;SDS011;36332;51.384;0.040;2024-02-14T09:44:43;1.15;;;0.60;;
27706;SDS011;36332;51.384;0.040;2024-02-14T09:47:12;2.40;;;0.50;;
27706;SDS011;36332;51.384;0.040;2024-02-14T09:49:42;1.10;;;0.65;;
27706;SDS011;36332;51.384;0.040;2024-02-14T09:52:11;2.47;;;0.50;;
27706;SDS011;36332;51.384;0.040;2024-02-14T09:54:39;0.80;;;0.60;;
27706;SDS011;36332;51.384;0.040;2024-02-14T09:57:07;0.50;;;0.45;;
27706;SDS011;36332;51.384;0.040;2024-02-14T09:59:35;0.52;;;0.52;;
27706;SDS011;36332;51.384;0.040;2024-02-14T10:02:04;0.80;;;0.50;;
27706;SDS011;36332;51.384;0.040;2024-02-14T10:04:32;0.40;;;0.40;;
27706;SDS011;36332;51.384;0.040;2024-02-14T10:07:00;1.75;;;0.77;;
27706;SDS011;36332;51.384;0.040;2024-02-14T10:09:29;3.95;;;1.00;;
27706;SDS011;36332;51.384;0.040;2024-02-14T10:11:57;4.47;;;1.15;;
27706;SDS011;36332;51.384;0.040;2024-02-14T10:14:25;3.13;;;0.80;;
27706;SDS011;36332;51.384;0.040;2024-02-14T10:16:53;1.55;;;0.88;;
27706;SDS011;36332;51.384;0.040;2024-02-14T10:19:21;1.20;;;0.77;;
27706;SDS011;36332;51.384;0.040;2024-02-14T10:21:55;0.68;;;0.60;;
27706;SDS011;36332;51.384;0.040;2024-02-14T10:24:26;1.88;;;0.77;;
27706;SDS011;36332;51.384;0.040;2024-02-14T10:26:54;2.15;;;0.60;;
27706;SDS011;36332;51.384;0.040;2024-02-14T10:29:25;4.68;;;1.10;;
27706;SDS011;36332;51.384;0.040;2024-02-14T10:31:53;0.75;;;0.70;;
27706;SDS011;36332;51.384;0.040;2024-02-14T10:34:24;4.72;;;0.90;;
27706;SDS011;36332;51.384;0.040;2024-02-14T10:36:55;2.42;;;0.80;;
27706;SDS011;36332;51.384;0.040;2024-02-14T10:39:27;0.60;;;0.60;;
27706;SDS011;36332;51.384;0.040;2024-02-14T10:41:58;1.17;;;0.65;;
27706;SDS011;36332;51.384;0.040;2024-02-14T10:44:27;3.78;;;0.70;;
27706;SDS011;36332;51.384;0.040;2024-02-14T10:46:58;0.82;;;0.63;;
27706;SDS011;36332;51.384;0.040;2024-02-14T10:49:30;0.60;;;0.60;;
27706;SDS011;36332;51.384;0.040;2024-02-14T10:51:58;0.98;;;0.85;;
27706;SDS011;36332;51.384;0.040;2024-02-14T10:54:31;3.42;;;0.70;;
27706;SDS011;36332;51.384;0.040;2024-02-14T10:56:58;0.70;;;0.60;;
27706;SDS011;36332;51.384;0.040;2024-02-14T10:59:33;0.50;;;0.50;;
27706;SDS011;36332;51.384;0.040;2024-02-14T11:02:02;1.20;;;1.00;;
27706;SDS011;36332;51.384;0.040;2024-02-14T11:04:31;1.52;;;0.70;;
27706;SDS011;36332;51.384;0.040;2024-02-14T11:07:00;1.10;;;0.73;;
27706;SDS011;36332;51.384;0.040;2024-02-14T11:09:33;1.77;;;0.70;;
27706;SDS011;36332;51.384;0.040;2024-02-14T11:12:12;2.00;;;0.57;;
27706;SDS011;36332;51.384;0.040;2024-02-14T11:14:42;0.63;;;0.57;;
27706;SDS011;36332;51.384;0.040;2024-02-14T11:17:12;3.92;;;1.00;;
27706;SDS011;36332;51.384;0.040;2024-02-14T11:19:40;3.10;;;0.85;;
27706;SDS011;36332;51.384;0.040;2024-02-14T11:22:12;2.13;;;0.98;;
27706;SDS011;36332;51.384;0.040;2024-02-14T11:24:46;5.95;;;1.30;;
27706;SDS011;36332;51.384;0.040;2024-02-14T11:27:17;1.73;;;0.77;;
27706;SDS011;36332;51.384;0.040;2024-02-14T11:30:01;3.15;;;1.02;;
27706;SDS011;36332;51.384;0.040;2024-02-14T11:32:31;3.92;;;1.02;;
27706;SDS011;36332;51.384;0.040;2024-02-14T11:35:00;5.68;;;1.23;;
27706;SDS011;36332;51.384;0.040;2024-02-14T11:37:28;3.35;;;1.50;;
27706;SDS011;36332;51.384;0.040;2024-02-14T11:40:00;5.07;;;1.27;;
27706;SDS011;36332;51.384;0.040;2024-02-14T11:42:30;7.38;;;1.85;;
27706;SDS011;36332;51.384;0.040;2024-02-14T11:44:58;5.25;;;1.35;;
27706;SDS011;36332;51.384;0.040;2024-02-14T11:47:25;3.35;;;1.23;;
27706;SDS011;36332;51.384;0.040;2024-02-14T11:49:54;3.38;;;0.90;;
27706;SDS011;36332;51.384;0.040;2024-02-14T11:52:25;5.18;;;0.93;;
27706;SDS011;36332;51.384;0.040;2024-02-14T11:54:54;2.65;;;1.35;;
27706;SDS011;36332;51.384;0.040;2024-02-14T11:57:24;4.25;;;1.33;;
27706;SDS011;36332;51.384;0.040;2024-02-14T11:59:53;7.43;;;1.20;;
27706;SDS011;36332;51.384;0.040;2024-02-14T12:02:22;4.18;;;1.35;;
27706;SDS011;36332;51.384;0.040;2024-02-14T12:04:50;4.57;;;1.45;;
27706;SDS011;36332;51.384;0.040;2024-02-14T12:07:22;8.30;;;1.73;;
27706;SDS011;36332;51.384;0.040;2024-02-14T12:09:52;6.28;;;1.50;;
27706;SDS011;36332;51.384;0.040;2024-02-14T12:12:22;6.00;;;1.30;;
27706;SDS011;36332;51.384;0.040;2024-02-14T12:14:51;7.47;;;1.52;;
27706;SDS011;36332;51.384;0.040;2024-02-14T12:17:19;11.20;;;1.80;;
27706;SDS011;36332;51.384;0.040;2024-02-14T12:19:49;3.25;;;1.42;;
27706;SDS011;36332;51.384;0.040;2024-02-14T12:22:17;4.65;;;1.27;;
27706;SDS011;36332;51.384;0.040;2024-02-14T12:24:47;3.28;;;1.35;;
27706;SDS011;36332;51.384;0.040;2024-02-14T12:27:18;3.70;;;1.60;;
27706;SDS011;36332;51.384;0.040;2024-02-14T12:29:47;6.45;;;1.73;;
27706;SDS011;36332;51.384;0.040;2024-02-14T12:32:16;6.30;;;1.73;;
27706;SDS011;36332;51.384;0.040;2024-02-14T12:34:46;7.20;;;1.63;;
27706;SDS011;36332;51.384;0.040;2024-02-14T12:37:14;2.80;;;1.15;;
27706;SDS011;36332;51.384;0.040;2024-02-14T12:39:42;3.65;;;1.38;;
27706;SDS011;36332;51.384;0.040;2024-02-14T12:42:11;3.92;;;1.45;;
27706;SDS011;36332;51.384;0.040;2024-02-14T12:44:39;4.80;;;1.30;;
27706;SDS011;36332;51.384;0.040;2024-02-14T12:47:08;2.45;;;1.10;;
27706;SDS011;36332;51.384;0.040;2024-02-14T12:49:35;4.75;;;1.40;;
27706;SDS011;36332;51.384;0.040;2024-02-14T12:52:03;8.15;;;1.77;;
27706;SDS011;36332;51.384;0.040;2024-02-14T12:54:32;4.20;;;1.15;;
27706;SDS011;36332;51.384;0.040;2024-02-14T12:57:01;3.00;;;1.55;;
27706;SDS011;36332;51.384;0.040;2024-02-14T12:59:29;2.60;;;1.10;;
27706;SDS011;36332;51.384;0.040;2024-02-14T13:01:58;8.23;;;1.67;;
27706;SDS011;36332;51.384;0.040;2024-02-14T13:04:26;5.78;;;1.30;;
27706;SDS011;36332;51.384;0.040;2024-02-14T13:06:54;2.60;;;1.20;;
27706;SDS011;36332;51.384;0.040;2024-02-14T13:09:23;3.13;;;1.40;;
27706;SDS011;36332;51.384;0.040;2024-02-14T13:11:51;3.95;;;1.52;;
27706;SDS011;36332;51.384;0.040;2024-02-14T13:14:19;7.03;;;2.10;;
27706;SDS011;36332;51.384;0.040;2024-02-14T13:16:47;5.10;;;1.73;;
27706;SDS011;36332;51.384;0.040;2024-02-14T13:19:14;4.18;;;1.52;;
27706;SDS011;36332;51.384;0.040;2024-02-14T13:21:46;2.88;;;1.52;;
27706;SDS011;36332;51.384;0.040;2024-02-14T13:24:16;6.25;;;1.75;;
27706;SDS011;36332;51.384;0.040;2024-02-14T13:26:44;3.15;;;2.17;;
27706;SDS011;36332;51.384;0.040;2024-02-14T13:29:14;3.47;;;1.40;;
27706;SDS011;36332;51.384;0.040;2024-02-14T13:31:42;3.72;;;1.70;;
27706;SDS011;36332;51.384;0.040;2024-02-14T13:34:10;3.58;;;2.15;;
27706;SDS011;36332;51.384;0.040;2024-02-14T13:36:39;4.07;;;2.03;;
27706;SDS011;36332;51.384;0.040;2024-02-14T13:39:07;5.80;;;1.60;;
27706;SDS011;36332;51.384;0.040;2024-02-14T13:41:35;7.65;;;1.67;;
27706;SDS011;36332;51.384;0.040;2024-02-14T13:44:08;4.40;;;1.70;;
27706;SDS011;36332;51.384;0.040;2024-02-14T13:46:36;2.45;;;1.60;;
27706;SDS011;36332;51.384;0.040;2024-02-14T13:49:04;3.97;;;1.50;;
27706;SDS011;36332;51.384;0.040;2024-02-14T13:51:32;3.90;;;1.40;;
27706;SDS011;36332;51.384;0.040;2024-02-14T13:54:00;3.72;;;1.55;;
27706;SDS011;36332;51.384;0.040;2024-02-14T13:56:28;6.38;;;1.70;;
27706;SDS011;36332;51.384;0.040;2024-02-14T13:58:56;6.50;;;1.85;;
27706;SDS011;36332;51.384;0.040;2024-02-14T14:01:23;2.45;;;1.30;;
27706;SDS011;36332;51.384;0.040;2024-02-14T14:03:53;5.03;;;1.48;;
27706;SDS011;36332;51.384;0.040;2024-02-14T14:06:22;4.85;;;2.03;;
27706;SDS011;36332;51.384;0.040;2024-02-14T14:08:53;5.53;;;2.58;;
27706;SDS011;36332;51.384;0.040;2024-02-14T14:11:21;8.73;;;1.95;;
27706;SDS011;36332;51.384;0.040;2024-02-14T14:13:50;4.50;;;1.75;;
27706;SDS011;36332;51.384;0.040;2024-02-14T14:16:17;3.60;;;1.20;;
27706;SDS011;36332;51.384;0.040;2024-02-14T14:18:48;2.78;;;1.10;;
27706;SDS011;36332;51.384;0.040;2024-02-14T14:21:20;4.78;;;2.10;;
27706;SDS011;36332;51.384;0.040;2024-02-14T14:23:48;3.92;;;1.80;;
27706;SDS011;36332;51.384;0.040;2024-02-14T14:26:16;5.55;;;1.10;;
27706;SDS011;36332;51.384;0.040;2024-02-14T14:28:44;4.20;;;1.40;;
27706;SDS011;36332;51.384;0.040;2024-02-14T14:31:11;3.33;;;1.10;;
27706;SDS011;36332;51.384;0.040;2024-02-14T14:33:39;3.47;;;1.67;;
27706;SDS011;36332;51.384;0.040;2024-02-14T14:36:08;3.10;;;1.08;;
27706;SDS011;36332;51.384;0.040;2024-02-14T14:38:36;1.95;;;0.90;;
27706;SDS011;36332;51.384;0.040;2024-02-14T14:41:05;3.83;;;1.02;;
27706;SDS011;36332;51.384;0.040;2024-02-14T14:43:32;4.85;;;1.35;;
27706;SDS011;36332;51.384;0.040;2024-02-14T14:46:01;3.42;;;1.30;;
27706;SDS011;36332;51.384;0.040;2024-02-14T14:48:30;3.25;;;1.35;;
27706;SDS011;36332;51.384;0.040;2024-02-14T14:50:59;5.50;;;1.58;;
27706;SDS011;36332;51.384;0.040;2024-02-14T14:53:26;1.73;;;1.30;;
27706;SDS011;36332;51.384;0.040;2024-02-14T14:55:54;2.10;;;1.40;;
27706;SDS011;36332;51.384;0.040;2024-02-14T14:58:23;3.10;;;1.10;;
27706;SDS011;36332;51.384;0.040;2024-02-14T15:00:55;3.13;;;1.00;;
27706;SDS011;36332;51.384;0.040;2024-02-14T15:03:26;7.35;;;1.50;;
27706;SDS011;36332;51.384;0.040;2024-02-14T15:05:54;3.47;;;1.20;;
27706;SDS011;36332;51.384;0.040;2024-02-14T15:08:22;3.90;;;1.83;;
27706;SDS011;36332;51.384;0.040;2024-02-14T15:10:54;6.50;;;1.52;;
27706;SDS011;36332;51.384;0.040;2024-02-14T15:13:23;1.67;;;1.25;;
27706;SDS011;36332;51.384;0.040;2024-02-14T15:15:51;4.68;;;1.45;;
27706;SDS011;36332;51.384;0.040;2024-02-14T15:18:20;7.03;;;1.60;;
27706;SDS011;36332;51.384;0.040;2024-02-14T15:20:47;3.63;;;1.55;;
27706;SDS011;36332;51.384;0.040;2024-02-14T15:23:15;3.20;;;1.30;;
27706;SDS011;36332;51.384;0.040;2024-02-14T15:25:44;7.22;;;1.85;;
27706;SDS011;36332;51.384;0.040;2024-02-14T15:28:12;8.98;;;1.60;;
27706;SDS011;36332;51.384;0.040;2024-02-14T15:30:44;5.55;;;1.77;;
27706;SDS011;36332;51.384;0.040;2024-02-14T15:33:30;5.80;;;1.80;;